Time;durP1;ratioP1;P1;durP2;ratioP2;P2;SDS_P1;SDS_P2;PMS_P1;PMS_P2;Temp;Humidity;BMP_temperature;BMP_pressure;BME280_temperature;BME280_humidity;BME280_pressure;Samples;Min_cycle;Max_cycle;Signal;HPM_P1;HPM_P2
2020/12/25 00:02:10;;;;;;;4.75;2.17;;;;;;;;;;5103424;28;20024;-71
2020/12/25 00:04:37;;;;;;;8.38;2.63;;;;;;;;;;5093534;28;20412;-69
2020/12/25 00:07:06;;;;;;;5.60;2.45;;;;;;;;;;5075639;28;20024;-70
2020/12/25 00:09:32;;;;;;;4.18;2.10;;;;;;;;;;5093829;28;20008;-70
2020/12/25 00:11:58;;;;;;;6.50;2.40;;;;;;;;;;5093815;28;20066;-70
2020/12/25 00:14:24;;;;;;;6.30;2.58;;;;;;;;;;5112636;28;20023;-75
2020/12/25 00:16:50;;;;;;;6.57;2.63;;;;;;;;;;5095154;28;20050;-75
2020/12/25 00:19:16;;;;;;;5.55;2.38;;;;;;;;;;5084444;28;20020;-73
2020/12/25 00:21:42;;;;;;;5.50;2.42;;;;;;;;;;5093462;28;20101;-74
2020/12/25 00:24:09;;;;;;;4.05;2.00;;;;;;;;;;5093402;28;20032;-71
2020/12/25 00:26:35;;;;;;;5.07;2.45;;;;;;;;;;5075199;28;20012;-70
2020/12/25 00:29:01;;;;;;;6.13;2.33;;;;;;;;;;5093466;28;20028;-71
2020/12/25 00:31:29;;;;;;;8.73;2.42;;;;;;;;;;5102058;28;20016;-74
2020/12/25 00:33:56;;;;;;;6.30;2.50;;;;;;;;;;5113746;28;20111;-75
2020/12/25 00:36:26;;;;;;;6.05;2.40;;;;;;;;;;5112613;28;20505;-71
2020/12/25 00:38:52;;;;;;;7.18;2.53;;;;;;;;;;5113581;28;20085;-73
2020/12/25 00:41:18;;;;;;;5.30;2.25;;;;;;;;;;5095249;28;20118;-74
2020/12/25 00:43:44;;;;;;;4.07;2.08;;;;;;;;;;5113583;28;20031;-76
2020/12/25 00:46:13;;;;;;;5.10;2.10;;;;;;;;;;5113486;28;20019;-74
2020/12/25 00:48:39;;;;;;;4.35;2.10;;;;;;;;;;5113233;28;20020;-74
2020/12/25 00:51:11;;;;;;;3.90;1.88;;;;;;;;;;5094712;28;20364;-74
2020/12/25 00:53:37;;;;;;;3.97;2.15;;;;;;;;;;5094039;28;20023;-75
2020/12/25 00:56:03;;;;;;;4.85;2.53;;;;;;;;;;5094770;28;20030;-75
2020/12/25 00:58:29;;;;;;;4.63;2.47;;;;;;;;;;5112950;28;20028;-74
2020/12/25 01:00:55;;;;;;;6.43;2.40;;;;;;;;;;5094685;28;20072;-69
2020/12/25 01:03:21;;;;;;;10.15;2.10;;;;;;;;;;5112082;28;20054;-70
2020/12/25 01:05:47;;;;;;;15.48;2.78;;;;;;;;;;5112219;28;20027;-69
2020/12/25 01:08:13;;;;;;;12.40;2.90;;;;;;;;;;5112613;28;20028;-70
2020/12/25 01:10:39;;;;;;;13.98;3.22;;;;;;;;;;5113724;28;20363;-70
2020/12/25 01:13:05;;;;;;;6.28;2.60;;;;;;;;;;5111530;28;20030;-70
2020/12/25 01:15:31;;;;;;;10.35;2.88;;;;;;;;;;5113674;28;20101;-70
2020/12/25 01:17:58;;;;;;;5.70;2.88;;;;;;;;;;5114036;28;20047;-71
2020/12/25 01:20:24;;;;;;;7.63;2.63;;;;;;;;;;5114428;28;20122;-71
2020/12/25 01:22:50;;;;;;;14.15;2.85;;;;;;;;;;5114336;28;20414;-71
2020/12/25 01:25:16;;;;;;;11.85;2.40;;;;;;;;;;5096152;28;20016;-71
2020/12/25 01:27:42;;;;;;;6.65;2.70;;;;;;;;;;5114225;28;20081;-70
2020/12/25 01:30:08;;;;;;;8.23;2.83;;;;;;;;;;5114354;28;20416;-71
2020/12/25 01:32:34;;;;;;;6.40;2.50;;;;;;;;;;5114195;28;20036;-71
2020/12/25 01:35:03;;;;;;;6.78;2.60;;;;;;;;;;5114126;28;20045;-70
2020/12/25 01:37:29;;;;;;;5.78;2.65;;;;;;;;;;5113764;28;20035;-70
2020/12/25 01:39:55;;;;;;;5.45;2.60;;;;;;;;;;5095705;28;20114;-70
2020/12/25 01:42:21;;;;;;;5.82;2.53;;;;;;;;;;5113911;28;20101;-71
2020/12/25 01:44:48;;;;;;;7.15;2.50;;;;;;;;;;5095627;28;20016;-71
2020/12/25 01:47:17;;;;;;;6.75;2.38;;;;;;;;;;5113671;28;20008;-71
2020/12/25 01:49:47;;;;;;;8.23;2.85;;;;;;;;;;5095498;28;20157;-71
2020/12/25 01:52:14;;;;;;;6.05;2.97;;;;;;;;;;5095461;28;20019;-70
2020/12/25 01:54:42;;;;;;;4.82;2.50;;;;;;;;;;5095515;28;20027;-72
2020/12/25 01:57:08;;;;;;;5.53;2.58;;;;;;;;;;5113105;28;20055;-70
2020/12/25 01:59:34;;;;;;;4.53;2.55;;;;;;;;;;5113318;28;20023;-70
2020/12/25 02:02:00;;;;;;;6.38;2.65;;;;;;;;;;5095430;28;20045;-70
2020/12/25 02:04:26;;;;;;;4.50;2.30;;;;;;;;;;5095092;28;20020;-70
2020/12/25 02:06:52;;;;;;;5.30;2.47;;;;;;;;;;5095180;28;20026;-70
2020/12/25 02:09:18;;;;;;;5.65;2.35;;;;;;;;;;5095070;28;20027;-71
2020/12/25 02:11:44;;;;;;;7.47;2.55;;;;;;;;;;5095124;28;20569;-72
2020/12/25 02:14:11;;;;;;;6.90;3.15;;;;;;;;;;5113478;28;20024;-70
2020/12/25 02:16:37;;;;;;;4.45;2.40;;;;;;;;;;5094986;28;20044;-71
2020/12/25 02:19:03;;;;;;;5.60;2.60;;;;;;;;;;5113464;28;20031;-70
2020/12/25 02:21:29;;;;;;;4.80;2.35;;;;;;;;;;5113413;28;20015;-71
2020/12/25 02:23:55;;;;;;;4.72;2.45;;;;;;;;;;5113564;28;20061;-70
2020/12/25 02:26:21;;;;;;;5.72;2.70;;;;;;;;;;5113545;28;20084;-70
2020/12/25 02:28:47;;;;;;;5.78;2.28;;;;;;;;;;5113405;28;20020;-70
2020/12/25 02:31:13;;;;;;;5.82;2.65;;;;;;;;;;5113110;28;20028;-70
2020/12/25 02:33:39;;;;;;;4.32;2.63;;;;;;;;;;5113138;28;20012;-72
2020/12/25 02:36:05;;;;;;;6.78;2.15;;;;;;;;;;5113260;28;20105;-71
2020/12/25 02:38:31;;;;;;;4.13;2.30;;;;;;;;;;5113387;28;20023;-70
2020/12/25 02:40:57;;;;;;;5.57;2.38;;;;;;;;;;5113047;28;20103;-71
2020/12/25 02:43:23;;;;;;;4.68;2.17;;;;;;;;;;5112932;28;20055;-71
2020/12/25 02:45:49;;;;;;;4.30;2.28;;;;;;;;;;5113180;28;20020;-70
2020/12/25 02:48:15;;;;;;;6.45;2.03;;;;;;;;;;5113210;28;20065;-71
2020/12/25 02:50:41;;;;;;;4.57;2.50;;;;;;;;;;5113221;28;20024;-70
2020/12/25 02:53:07;;;;;;;4.70;2.20;;;;;;;;;;5113149;28;20023;-72
2020/12/25 02:55:33;;;;;;;4.07;1.95;;;;;;;;;;5113089;28;20455;-71
2020/12/25 02:57:59;;;;;;;4.18;2.28;;;;;;;;;;5094801;28;20573;-72
2020/12/25 03:00:25;;;;;;;5.80;2.28;;;;;;;;;;5094897;28;20467;-70
2020/12/25 03:02:51;;;;;;;4.35;2.10;;;;;;;;;;5094847;28;20034;-70
2020/12/25 03:05:17;;;;;;;3.92;2.05;;;;;;;;;;5113053;28;20376;-70
2020/12/25 03:07:43;;;;;;;4.72;2.15;;;;;;;;;;5113411;28;20439;-71
2020/12/25 03:10:09;;;;;;;3.60;2.00;;;;;;;;;;5112847;28;20024;-71
2020/12/25 03:12:35;;;;;;;3.95;1.92;;;;;;;;;;5094517;28;20370;-70
2020/12/25 03:15:01;;;;;;;4.43;2.00;;;;;;;;;;5114011;28;20088;-70
2020/12/25 03:17:28;;;;;;;4.03;2.10;;;;;;;;;;5116646;28;20054;-71
2020/12/25 03:19:54;;;;;;;6.28;2.38;;;;;;;;;;5098617;28;20019;-72
2020/12/25 03:22:20;;;;;;;4.30;1.90;;;;;;;;;;5116806;28;20485;-70
2020/12/25 03:24:46;;;;;;;4.53;1.80;;;;;;;;;;5116714;28;20465;-71
2020/12/25 03:27:12;;;;;;;3.78;1.70;;;;;;;;;;5116664;28;20456;-71
2020/12/25 03:29:38;;;;;;;3.30;1.35;;;;;;;;;;5116472;28;20092;-71
2020/12/25 03:32:04;;;;;;;4.38;2.17;;;;;;;;;;5098303;28;20406;-71
2020/12/25 03:34:30;;;;;;;3.58;1.70;;;;;;;;;;5098047;28;20020;-70
2020/12/25 03:36:56;;;;;;;4.28;1.73;;;;;;;;;;5116342;28;20049;-70
2020/12/25 03:39:22;;;;;;;3.50;1.75;;;;;;;;;;5116470;28;20035;-70
2020/12/25 03:41:48;;;;;;;3.00;1.50;;;;;;;;;;5098017;28;20069;-71
2020/12/25 03:44:14;;;;;;;3.47;1.73;;;;;;;;;;5098164;28;20064;-70
2020/12/25 03:46:40;;;;;;;3.60;1.70;;;;;;;;;;5116203;28;20020;-70
2020/12/25 03:49:07;;;;;;;3.08;1.63;;;;;;;;;;5116190;28;20043;-70
2020/12/25 03:51:33;;;;;;;3.63;1.80;;;;;;;;;;5097887;28;20466;-70
2020/12/25 03:53:59;;;;;;;3.25;1.60;;;;;;;;;;5097760;28;20452;-70
2020/12/25 03:56:26;;;;;;;4.30;1.60;;;;;;;;;;5115827;28;20040;-71
2020/12/25 03:58:52;;;;;;;3.35;1.60;;;;;;;;;;5115850;28;20012;-70
2020/12/25 04:01:18;;;;;;;3.22;1.52;;;;;;;;;;5116067;28;20103;-70
2020/12/25 04:03:44;;;;;;;2.90;1.38;;;;;;;;;;5116055;28;20470;-70
2020/12/25 04:06:10;;;;;;;3.38;1.42;;;;;;;;;;5116477;28;20063;-70
2020/12/25 04:08:37;;;;;;;4.43;2.00;;;;;;;;;;5115843;28;20027;-70
2020/12/25 04:11:03;;;;;;;3.15;1.58;;;;;;;;;;5115900;28;20019;-70
2020/12/25 04:13:29;;;;;;;3.38;1.60;;;;;;;;;;5115845;28;20099;-70
2020/12/25 04:15:59;;;;;;;3.20;1.60;;;;;;;;;;5115325;28;20078;-70
2020/12/25 04:18:25;;;;;;;5.00;1.65;;;;;;;;;;5115469;28;20077;-72
2020/12/25 04:20:51;;;;;;;3.05;1.30;;;;;;;;;;5115552;28;20020;-72
2020/12/25 04:23:17;;;;;;;3.47;1.70;;;;;;;;;;5115495;28;20032;-70
2020/12/25 04:25:43;;;;;;;2.67;1.38;;;;;;;;;;5114896;28;20394;-71
2020/12/25 04:28:09;;;;;;;2.92;1.50;;;;;;;;;;5096997;28;20383;-72
2020/12/25 04:30:35;;;;;;;2.42;1.30;;;;;;;;;;5097120;28;20023;-70
2020/12/25 04:33:01;;;;;;;1.90;1.05;;;;;;;;;;5097078;28;20027;-70
2020/12/25 04:35:28;;;;;;;4.30;1.35;;;;;;;;;;5097046;28;20023;-71
2020/12/25 04:37:54;;;;;;;2.13;1.13;;;;;;;;;;5115014;28;20039;-70
2020/12/25 04:40:20;;;;;;;3.47;1.25;;;;;;;;;;5115591;28;20069;-71
2020/12/25 04:42:51;;;;;;;2.65;1.33;;;;;;;;;;5115170;28;20024;-70
2020/12/25 04:45:18;;;;;;;2.38;1.17;;;;;;;;;;5115133;28;20024;-70
2020/12/25 04:47:46;;;;;;;3.42;1.63;;;;;;;;;;5115127;28;20499;-71
2020/12/25 04:50:12;;;;;;;3.33;1.30;;;;;;;;;;5096610;28;20024;-70
2020/12/25 04:52:38;;;;;;;3.25;1.33;;;;;;;;;;5114973;28;20091;-71
2020/12/25 04:55:04;;;;;;;4.47;1.20;;;;;;;;;;5114874;28;20344;-72
2020/12/25 04:57:30;;;;;;;2.83;1.40;;;;;;;;;;5114874;28;20031;-70
2020/12/25 04:59:56;;;;;;;2.42;1.23;;;;;;;;;;5114885;28;20022;-70
2020/12/25 05:02:22;;;;;;;2.25;1.20;;;;;;;;;;5096571;28;20462;-71
2020/12/25 05:04:48;;;;;;;3.25;1.50;;;;;;;;;;5114693;28;20031;-72
2020/12/25 05:07:15;;;;;;;2.72;1.33;;;;;;;;;;5114466;28;20030;-71
2020/12/25 05:09:41;;;;;;;2.75;1.25;;;;;;;;;;5114503;28;20020;-72
2020/12/25 05:12:11;;;;;;;2.85;1.27;;;;;;;;;;5114420;28;20077;-71
2020/12/25 05:14:41;;;;;;;3.33;1.20;;;;;;;;;;5096140;28;20431;-71
2020/12/25 05:17:09;;;;;;;2.22;1.17;;;;;;;;;;5096057;28;20581;-71
2020/12/25 05:19:35;;;;;;;2.72;1.30;;;;;;;;;;5114443;28;20059;-71
2020/12/25 05:22:02;;;;;;;2.65;1.20;;;;;;;;;;5114431;28;20509;-70
2020/12/25 05:24:34;;;;;;;2.55;1.30;;;;;;;;;;5096078;28;20118;-70
2020/12/25 05:27:01;;;;;;;2.78;1.13;;;;;;;;;;5114405;28;20466;-72
2020/12/25 05:29:28;;;;;;;2.83;1.30;;;;;;;;;;5114444;28;20023;-70
2020/12/25 05:31:54;;;;;;;2.17;1.10;;;;;;;;;;5114151;28;20060;-71
2020/12/25 05:34:21;;;;;;;2.65;1.13;;;;;;;;;;5114135;28;20023;-71
2020/12/25 05:36:51;;;;;;;3.00;1.30;;;;;;;;;;5095485;28;20027;-71
2020/12/25 05:39:30;;;;;;;2.42;1.10;;;;;;;;;;5113649;28;20046;-71
2020/12/25 05:41:57;;;;;;;2.63;1.40;;;;;;;;;;5113944;28;20097;-71
2020/12/25 05:44:28;;;;;;;2.00;1.00;;;;;;;;;;5114123;28;20031;-72
2020/12/25 05:46:58;;;;;;;1.70;1.10;;;;;;;;;;5113961;28;20022;-70
2020/12/25 05:49:26;;;;;;;3.33;1.20;;;;;;;;;;5095508;28;20416;-71
2020/12/25 05:51:52;;;;;;;3.88;1.10;;;;;;;;;;5113814;28;20125;-72
2020/12/25 05:54:22;;;;;;;1.77;1.00;;;;;;;;;;5095382;28;20110;-71
2020/12/25 05:56:52;;;;;;;1.92;1.00;;;;;;;;;;5113520;28;20036;-73
2020/12/25 05:59:21;;;;;;;2.35;1.20;;;;;;;;;;5113738;28;20027;-73
2020/12/25 06:01:47;;;;;;;2.70;1.20;;;;;;;;;;5113481;28;20028;-71
2020/12/25 06:04:14;;;;;;;2.63;1.10;;;;;;;;;;5113464;28;20024;-73
2020/12/25 06:06:40;;;;;;;2.40;1.17;;;;;;;;;;5113751;28;20024;-71
2020/12/25 06:09:06;;;;;;;2.70;1.10;;;;;;;;;;5095358;28;20115;-72
2020/12/25 06:11:33;;;;;;;2.47;1.10;;;;;;;;;;5113493;28;20467;-70
2020/12/25 06:13:59;;;;;;;2.58;1.23;;;;;;;;;;5113484;28;20027;-71
2020/12/25 06:16:27;;;;;;;3.40;1.20;;;;;;;;;;5095151;28;20043;-71
2020/12/25 06:18:56;;;;;;;2.25;1.13;;;;;;;;;;5113528;28;20024;-71
2020/12/25 06:21:41;;;;;;;2.33;1.05;;;;;;;;;;5113475;28;20023;-70
2020/12/25 06:24:09;;;;;;;2.28;1.08;;;;;;;;;;5113328;28;20097;-70
2020/12/25 06:26:36;;;;;;;2.58;1.17;;;;;;;;;;5095034;28;20045;-70
2020/12/25 06:29:03;;;;;;;3.00;1.10;;;;;;;;;;5113211;28;20087;-71
2020/12/25 06:31:41;;;;;;;4.78;1.58;;;;;;;;;;5113085;28;20011;-71
2020/12/25 06:34:07;;;;;;;3.20;1.30;;;;;;;;;;5113266;28;20024;-71
2020/12/25 06:36:33;;;;;;;2.67;1.35;;;;;;;;;;5113131;28;20363;-71
2020/12/25 06:39:09;;;;;;;2.65;1.40;;;;;;;;;;5094931;28;20114;-70
2020/12/25 06:41:36;;;;;;;2.83;1.30;;;;;;;;;;5112946;28;20019;-71
2020/12/25 06:44:05;;;;;;;3.55;1.10;;;;;;;;;;5094670;28;20092;-70
2020/12/25 06:46:34;;;;;;;4.70;1.40;;;;;;;;;;5113222;28;20028;-71
2020/12/25 06:49:09;;;;;;;2.72;1.30;;;;;;;;;;5114190;28;20018;-70
2020/12/25 06:51:45;;;;;;;6.32;1.20;;;;;;;;;;5098824;28;20386;-70
2020/12/25 06:54:21;;;;;;;2.80;1.20;;;;;;;;;;5117276;28;20019;-71
2020/12/25 06:56:47;;;;;;;4.47;1.25;;;;;;;;;;5116890;28;20023;-71
2020/12/25 06:59:15;;;;;;;3.03;1.33;;;;;;;;;;5117015;28;20051;-71
2020/12/25 07:01:42;;;;;;;4.13;1.08;;;;;;;;;;5098810;28;20113;-72
2020/12/25 07:04:22;;;;;;;4.85;1.50;;;;;;;;;;5117176;28;20023;-70
2020/12/25 07:06:51;;;;;;;3.00;1.15;;;;;;;;;;5098758;28;20019;-70
2020/12/25 07:09:17;;;;;;;2.78;1.42;;;;;;;;;;5117050;28;20047;-70
2020/12/25 07:11:43;;;;;;;2.42;1.30;;;;;;;;;;5116952;28;20024;-71
2020/12/25 07:14:10;;;;;;;4.50;1.25;;;;;;;;;;5116811;28;20031;-71
2020/12/25 07:16:36;;;;;;;3.47;1.17;;;;;;;;;;5116572;28;20048;-71
2020/12/25 07:19:02;;;;;;;2.60;1.17;;;;;;;;;;5098526;28;20027;-71
2020/12/25 07:21:29;;;;;;;2.58;1.30;;;;;;;;;;5098391;28;20383;-71
2020/12/25 07:23:55;;;;;;;4.50;1.25;;;;;;;;;;5116695;28;20462;-71
2020/12/25 07:26:21;;;;;;;2.05;1.10;;;;;;;;;;5116779;28;20099;-71
2020/12/25 07:28:48;;;;;;;2.85;1.17;;;;;;;;;;5116593;28;20073;-71
2020/12/25 07:31:14;;;;;;;3.42;1.52;;;;;;;;;;5116665;28;20605;-71
2020/12/25 07:33:40;;;;;;;3.78;1.30;;;;;;;;;;5116713;28;20539;-71
2020/12/25 07:36:10;;;;;;;2.00;1.00;;;;;;;;;;5098283;28;20401;-70
2020/12/25 07:38:36;;;;;;;3.08;1.30;;;;;;;;;;5116577;28;20024;-71
2020/12/25 07:41:02;;;;;;;3.42;1.38;;;;;;;;;;5116248;28;20121;-73
2020/12/25 07:43:28;;;;;;;2.70;1.30;;;;;;;;;;5097971;28;20077;-71
2020/12/25 07:45:54;;;;;;;2.38;1.10;;;;;;;;;;5116346;28;20020;-70
2020/12/25 07:48:22;;;;;;;3.40;1.30;;;;;;;;;;5116156;28;20031;-70
2020/12/25 07:50:48;;;;;;;2.75;1.33;;;;;;;;;;5116074;28;20382;-71
2020/12/25 07:53:15;;;;;;;4.05;1.30;;;;;;;;;;5116172;28;20019;-70
2020/12/25 07:55:45;;;;;;;2.17;1.00;;;;;;;;;;5116195;28;20027;-72
2020/12/25 07:58:15;;;;;;;4.07;1.25;;;;;;;;;;5097783;28;20065;-71
2020/12/25 08:00:42;;;;;;;4.70;1.10;;;;;;;;;;5115036;28;20386;-70
2020/12/25 08:03:08;;;;;;;2.63;1.15;;;;;;;;;;5116082;28;20049;-73
2020/12/25 08:05:34;;;;;;;3.00;1.40;;;;;;;;;;5115677;28;20438;-71
2020/12/25 08:08:01;;;;;;;2.67;1.13;;;;;;;;;;5115561;28;20016;-71
2020/12/25 08:10:27;;;;;;;2.88;1.20;;;;;;;;;;5115678;28;20035;-70
2020/12/25 08:13:00;;;;;;;3.30;1.73;;;;;;;;;;5115743;28;20440;-71
2020/12/25 08:15:26;;;;;;;;;;;;;;;;;;5116100;28;20024;-71
2020/12/25 08:17:52;;;;;;;3.25;1.30;;;;;;;;;;5115534;28;20017;-72
2020/12/25 08:20:18;;;;;;;2.40;1.15;;;;;;;;;;5097312;28;20072;-71
2020/12/25 08:22:44;;;;;;;2.55;1.15;;;;;;;;;;5115575;28;20032;-70
2020/12/25 08:25:11;;;;;;;2.35;1.23;;;;;;;;;;5097337;28;20128;-70
2020/12/25 08:27:37;;;;;;;2.85;1.20;;;;;;;;;;5115566;28;20022;-70
2020/12/25 08:30:06;;;;;;;3.35;1.40;;;;;;;;;;5097265;28;20059;-70
2020/12/25 08:32:33;;;;;;;3.00;1.33;;;;;;;;;;5096598;28;20030;-70
2020/12/25 08:35:08;;;;;;;2.55;1.10;;;;;;;;;;5114874;28;20020;-71
2020/12/25 08:37:34;;;;;;;4.03;1.10;;;;;;;;;;5105987;28;20059;-72
2020/12/25 08:40:14;;;;;;;4.82;1.10;;;;;;;;;;5114852;28;20023;-75
2020/12/25 08:42:40;;;;;;;5.10;1.10;;;;;;;;;;5107590;28;20107;-78
2020/12/25 08:45:06;;;;;;;3.50;0.90;;;;;;;;;;5075788;28;20032;-78
2020/12/25 08:47:32;;;;;;;2.70;1.20;;;;;;;;;;5074881;28;20046;-78
2020/12/25 08:49:58;;;;;;;5.15;0.98;;;;;;;;;;5105447;28;20106;-78
2020/12/25 08:52:24;;;;;;;3.05;1.20;;;;;;;;;;5110176;28;20030;-78
2020/12/25 08:55:00;;;;;;;6.50;1.30;;;;;;;;;;5112830;28;20478;-74
2020/12/25 08:57:26;;;;;;;2.53;1.08;;;;;;;;;;5113265;28;20111;-79
2020/12/25 09:00:04;;;;;;;5.15;1.40;;;;;;;;;;5112274;28;20085;-75
2020/12/25 09:02:30;;;;;;;2.72;1.02;;;;;;;;;;5094851;28;20027;-75
2020/12/25 09:04:56;;;;;;;3.55;1.02;;;;;;;;;;5113111;28;20008;-74
2020/12/25 09:07:22;;;;;;;2.22;1.00;;;;;;;;;;5112362;28;20023;-76
2020/12/25 09:09:48;;;;;;;2.85;1.20;;;;;;;;;;5094099;28;20024;-79
2020/12/25 09:12:14;;;;;;;1.73;0.90;;;;;;;;;;5112314;28;20016;-73
2020/12/25 09:14:40;;;;;;;1.42;0.90;;;;;;;;;;5112667;28;20050;-74
2020/12/25 09:17:06;;;;;;;3.78;0.90;;;;;;;;;;5111042;28;20059;-70
2020/12/25 09:19:32;;;;;;;2.92;0.98;;;;;;;;;;5112627;28;20095;-70
2020/12/25 09:21:58;;;;;;;2.28;0.98;;;;;;;;;;5094363;28;20111;-71
2020/12/25 09:24:24;;;;;;;2.63;1.10;;;;;;;;;;5112644;28;20031;-73
2020/12/25 09:26:52;;;;;;;2.30;0.93;;;;;;;;;;5112896;28;20027;-73
2020/12/25 09:29:18;;;;;;;2.22;1.00;;;;;;;;;;5094554;28;20153;-75
2020/12/25 09:31:44;;;;;;;4.05;0.98;;;;;;;;;;5084441;28;20020;-73
2020/12/25 09:34:10;;;;;;;2.15;1.05;;;;;;;;;;5092440;28;20020;-74
2020/12/25 09:36:36;;;;;;;2.60;1.00;;;;;;;;;;5073675;28;20024;-80
2020/12/25 09:39:03;;;;;;;10.40;1.15;;;;;;;;;;5092030;28;20467;-81
2020/12/25 09:41:29;;;;;;;2.53;1.00;;;;;;;;;;5073859;28;20536;-73
2020/12/25 09:43:55;;;;;;;2.17;1.17;;;;;;;;;;5091958;28;20032;-82
2020/12/25 09:46:21;;;;;;;2.22;1.10;;;;;;;;;;5073489;28;20055;-78
2020/12/25 09:48:47;;;;;;;2.58;1.15;;;;;;;;;;5073610;28;20073;-82
2020/12/25 09:51:13;;;;;;;2.92;1.08;;;;;;;;;;5092301;28;20020;-78
2020/12/25 09:53:39;;;;;;;3.65;1.00;;;;;;;;;;5111145;27;20016;-74
2020/12/25 09:56:05;;;;;;;2.85;1.10;;;;;;;;;;5130976;27;20019;-74
2020/12/25 09:58:31;;;;;;;2.03;1.02;;;;;;;;;;5126968;27;20037;-73
2020/12/25 10:00:57;;;;;;;4.35;1.00;;;;;;;;;;5111984;28;20462;-71
2020/12/25 10:03:24;;;;;;;2.10;0.90;;;;;;;;;;5112331;28;20412;-72
2020/12/25 10:05:50;;;;;;;2.80;1.15;;;;;;;;;;5111962;28;20446;-70
2020/12/25 10:08:16;;;;;;;2.28;1.00;;;;;;;;;;5094878;28;20020;-73
2020/12/25 10:10:42;;;;;;;1.58;0.85;;;;;;;;;;5101574;27;20110;-73
2020/12/25 10:13:08;;;;;;;1.45;0.85;;;;;;;;;;5132357;27;20027;-72
2020/12/25 10:15:35;;;;;;;2.88;1.00;;;;;;;;;;5114000;27;20023;-72
2020/12/25 10:18:01;;;;;;;3.42;1.10;;;;;;;;;;5110988;28;20043;-72
2020/12/25 10:20:27;;;;;;;3.50;0.80;;;;;;;;;;5111989;28;20047;-72
2020/12/25 10:22:53;;;;;;;2.38;1.00;;;;;;;;;;5112153;28;20024;-72
2020/12/25 10:25:19;;;;;;;4.50;1.10;;;;;;;;;;5076592;28;20040;-70
2020/12/25 10:27:45;;;;;;;2.47;1.00;;;;;;;;;;5071135;28;20048;-72
2020/12/25 10:30:11;;;;;;;4.35;1.05;;;;;;;;;;5076533;28;20020;-73
2020/12/25 10:32:37;;;;;;;2.08;0.90;;;;;;;;;;5089399;28;20487;-72
2020/12/25 10:35:04;;;;;;;1.88;1.00;;;;;;;;;;5089640;28;20375;-72
2020/12/25 10:37:30;;;;;;;6.03;1.00;;;;;;;;;;5090950;28;20035;-73
2020/12/25 10:39:57;;;;;;;2.70;0.98;;;;;;;;;;5087646;28;20057;-71
2020/12/25 10:42:23;;;;;;;12.27;1.30;;;;;;;;;;5089322;28;20035;-73
2020/12/25 10:44:49;;;;;;;2.78;1.60;;;;;;;;;;5088883;28;20097;-74
2020/12/25 10:47:15;;;;;;;2.70;1.17;;;;;;;;;;5090989;28;20142;-78
2020/12/25 10:49:41;;;;;;;3.95;1.40;;;;;;;;;;5089731;28;20016;-75
2020/12/25 10:52:07;;;;;;;3.03;1.20;;;;;;;;;;5090643;28;20020;-76
2020/12/25 10:54:33;;;;;;;7.03;1.58;;;;;;;;;;5089796;28;20103;-76
2020/12/25 10:56:59;;;;;;;6.82;1.58;;;;;;;;;;5091430;28;20024;-76
2020/12/25 10:59:25;;;;;;;3.65;1.63;;;;;;;;;;5089985;28;20028;-76
2020/12/25 11:01:51;;;;;;;6.43;1.90;;;;;;;;;;5081870;28;20020;-76
2020/12/25 11:04:17;;;;;;;6.20;2.00;;;;;;;;;;5069573;28;20030;-75
2020/12/25 11:06:44;;;;;;;13.77;2.20;;;;;;;;;;5071012;28;20388;-76
2020/12/25 11:09:10;;;;;;;13.73;2.35;;;;;;;;;;5071108;28;20020;-76
2020/12/25 11:11:38;;;;;;;11.52;2.70;;;;;;;;;;5077591;28;20150;-74
2020/12/25 11:14:04;;;;;;;11.98;2.60;;;;;;;;;;5091136;28;20017;-76
2020/12/25 11:16:31;;;;;;;10.05;2.58;;;;;;;;;;5098010;28;20469;-74
2020/12/25 11:18:58;;;;;;;11.25;2.60;;;;;;;;;;5101161;28;20478;-75
2020/12/25 11:21:25;;;;;;;12.55;2.42;;;;;;;;;;5072730;28;20032;-76
2020/12/25 11:23:51;;;;;;;8.70;2.38;;;;;;;;;;5072589;28;20046;-75
2020/12/25 11:26:20;;;;;;;8.18;2.15;;;;;;;;;;5084635;28;20027;-80
2020/12/25 11:28:46;;;;;;;12.20;2.80;;;;;;;;;;5091668;28;20105;-74
2020/12/25 11:31:13;;;;;;;10.75;2.33;;;;;;;;;;5091016;28;20490;-78
2020/12/25 11:33:39;;;;;;;9.48;2.40;;;;;;;;;;5090945;28;20032;-84
2020/12/25 11:36:06;;;;;;;10.63;2.22;;;;;;;;;;5092335;28;20052;-79
2020/12/25 11:38:32;;;;;;;8.93;2.30;;;;;;;;;;5094686;28;20028;-79
2020/12/25 11:40:58;;;;;;;9.00;2.13;;;;;;;;;;5095264;28;20024;-77
2020/12/25 11:43:24;;;;;;;8.80;1.85;;;;;;;;;;5095124;28;20020;-84
2020/12/25 11:45:50;;;;;;;12.65;2.50;;;;;;;;;;5094765;28;20107;-74
2020/12/25 11:48:16;;;;;;;7.00;2.03;;;;;;;;;;5076399;28;20023;-84
2020/12/25 11:50:42;;;;;;;5.72;1.88;;;;;;;;;;5094546;28;20463;-80
2020/12/25 11:53:08;;;;;;;6.72;1.92;;;;;;;;;;5094364;28;20528;-84
2020/12/25 11:55:34;;;;;;;7.43;1.92;;;;;;;;;;5076695;28;20058;-80
2020/12/25 11:58:01;;;;;;;8.18;2.53;;;;;;;;;;5094667;28;20043;-80
2020/12/25 12:00:27;;;;;;;6.30;1.90;;;;;;;;;;5094753;28;20217;-77
2020/12/25 12:02:53;;;;;;;8.77;2.17;;;;;;;;;;5076368;28;20035;-80
2020/12/25 12:05:19;;;;;;;6.43;1.55;;;;;;;;;;5094527;28;20023;-83
2020/12/25 12:07:45;;;;;;;3.75;1.75;;;;;;;;;;5094403;28;20012;-84
2020/12/25 12:10:11;;;;;;;3.78;1.75;;;;;;;;;;5094204;28;20112;-77
2020/12/25 12:12:39;;;;;;;5.75;2.00;;;;;;;;;;5094341;28;20025;-80
2020/12/25 12:15:05;;;;;;;4.32;1.30;;;;;;;;;;5081111;28;20142;-76
2020/12/25 12:17:31;;;;;;;6.88;2.17;;;;;;;;;;5095558;28;20123;-74
2020/12/25 12:19:57;;;;;;;4.30;2.00;;;;;;;;;;5094338;28;20024;-75
2020/12/25 12:22:23;;;;;;;5.07;2.13;;;;;;;;;;5095740;28;20019;-73
2020/12/25 12:24:49;;;;;;;3.92;1.80;;;;;;;;;;5095687;28;20110;-81
2020/12/25 12:27:15;;;;;;;6.75;1.80;;;;;;;;;;5095745;28;20092;-74
2020/12/25 12:29:41;;;;;;;4.05;1.98;;;;;;;;;;5114096;28;20085;-75
2020/12/25 12:32:07;;;;;;;5.20;2.10;;;;;;;;;;5113986;28;20443;-74
2020/12/25 12:34:33;;;;;;;4.35;1.85;;;;;;;;;;5095710;28;20270;-78
2020/12/25 12:36:59;;;;;;;6.55;1.80;;;;;;;;;;5114017;28;20591;-80
2020/12/25 12:39:25;;;;;;;5.53;1.80;;;;;;;;;;5114019;28;20055;-76
2020/12/25 12:41:51;;;;;;;7.32;2.10;;;;;;;;;;5113975;28;20348;-76
2020/12/25 12:44:17;;;;;;;4.80;1.90;;;;;;;;;;5095596;28;20046;-77
2020/12/25 12:46:43;;;;;;;4.88;1.60;;;;;;;;;;5113404;28;20024;-73
2020/12/25 12:49:09;;;;;;;5.40;1.70;;;;;;;;;;5113785;28;20424;-73
2020/12/25 12:51:35;;;;;;;3.53;1.63;;;;;;;;;;5113523;28;20443;-80
2020/12/25 12:54:01;;;;;;;4.10;1.80;;;;;;;;;;5113552;28;20020;-74
2020/12/25 12:56:28;;;;;;;3.70;1.77;;;;;;;;;;5113540;28;20065;-79
2020/12/25 12:58:54;;;;;;;5.30;1.80;;;;;;;;;;5113551;28;20019;-74
2020/12/25 13:01:20;;;;;;;5.45;1.80;;;;;;;;;;5113443;28;20435;-75
2020/12/25 13:03:46;;;;;;;3.40;1.50;;;;;;;;;;5113535;28;20479;-73
2020/12/25 13:06:13;;;;;;;3.78;1.77;;;;;;;;;;5113231;28;20031;-74
2020/12/25 13:08:39;;;;;;;3.47;1.42;;;;;;;;;;5094897;28;20474;-79
2020/12/25 13:11:05;;;;;;;5.40;1.70;;;;;;;;;;5113153;28;20032;-76
2020/12/25 13:13:31;;;;;;;4.25;1.77;;;;;;;;;;5113312;28;20153;-75
2020/12/25 13:15:57;;;;;;;4.13;1.80;;;;;;;;;;5112974;28;20053;-76
2020/12/25 13:18:23;;;;;;;3.38;1.58;;;;;;;;;;5094766;28;20533;-74
2020/12/25 13:20:50;;;;;;;4.32;1.85;;;;;;;;;;5113010;28;20023;-80
2020/12/25 13:23:16;;;;;;;3.47;1.77;;;;;;;;;;5113074;28;20023;-73
2020/12/25 13:25:42;;;;;;;2.83;1.38;;;;;;;;;;5113224;28;20471;-79
2020/12/25 13:28:08;;;;;;;4.13;1.90;;;;;;;;;;5112960;28;20031;-81
2020/12/25 13:30:34;;;;;;;3.42;1.60;;;;;;;;;;5112857;28;20043;-78
2020/12/25 13:33:00;;;;;;;3.90;1.63;;;;;;;;;;5112820;28;20037;-75
2020/12/25 13:35:27;;;;;;;3.33;1.63;;;;;;;;;;5112918;28;20068;-73
2020/12/25 13:37:53;;;;;;;4.13;2.00;;;;;;;;;;5112774;28;20036;-80
2020/12/25 13:40:20;;;;;;;3.97;1.77;;;;;;;;;;5112836;28;20019;-80
2020/12/25 13:42:46;;;;;;;5.30;2.00;;;;;;;;;;5112775;28;20031;-73
2020/12/25 13:45:12;;;;;;;4.55;1.70;;;;;;;;;;5112587;28;20359;-80
2020/12/25 13:47:38;;;;;;;4.20;1.98;;;;;;;;;;5112445;28;20066;-75
2020/12/25 13:50:04;;;;;;;3.97;1.80;;;;;;;;;;5112432;28;20012;-79
2020/12/25 13:52:31;;;;;;;4.60;1.90;;;;;;;;;;5112414;28;20474;-74
2020/12/25 13:54:57;;;;;;;3.72;1.80;;;;;;;;;;5112383;28;20019;-73
2020/12/25 13:57:23;;;;;;;3.80;1.42;;;;;;;;;;5112274;28;20035;-74
2020/12/25 13:59:49;;;;;;;3.25;1.52;;;;;;;;;;5111650;28;20020;-79
2020/12/25 14:02:15;;;;;;;5.05;1.65;;;;;;;;;;5112425;28;20027;-78
2020/12/25 14:04:41;;;;;;;3.13;1.40;;;;;;;;;;5112398;28;20015;-72
2020/12/25 14:07:07;;;;;;;3.20;1.73;;;;;;;;;;5093974;28;20077;-74
2020/12/25 14:09:34;;;;;;;3.45;1.70;;;;;;;;;;5112132;28;20091;-73
2020/12/25 14:12:00;;;;;;;4.28;1.73;;;;;;;;;;5113589;28;20016;-80
2020/12/25 14:14:26;;;;;;;4.40;1.73;;;;;;;;;;5095354;28;20031;-73
2020/12/25 14:16:52;;;;;;;3.65;1.42;;;;;;;;;;5111879;28;20048;-79
2020/12/25 14:19:20;;;;;;;4.82;1.65;;;;;;;;;;5112289;28;20130;-75
2020/12/25 14:21:46;;;;;;;3.40;1.60;;;;;;;;;;5112123;28;20023;-79
2020/12/25 14:24:12;;;;;;;3.28;1.40;;;;;;;;;;5112100;28;20026;-77
2020/12/25 14:26:38;;;;;;;4.90;1.55;;;;;;;;;;5093791;28;20448;-79
2020/12/25 14:29:05;;;;;;;3.75;1.73;;;;;;;;;;5093898;28;20023;-74
2020/12/25 14:31:35;;;;;;;6.00;1.65;;;;;;;;;;5111976;28;20019;-78
2020/12/25 14:34:01;;;;;;;3.53;1.70;;;;;;;;;;5093785;28;20020;-73
2020/12/25 14:36:27;;;;;;;2.70;1.25;;;;;;;;;;5093292;28;20460;-79
2020/12/25 14:38:54;;;;;;;3.28;1.58;;;;;;;;;;5111871;28;20023;-77
2020/12/25 14:41:24;;;;;;;4.10;1.50;;;;;;;;;;5093532;28;20053;-76